sensor_id;sensor_type;location;lat;lon;timestamp;temperature;humidity
21037;DHT22;10677;50.942;4.028;2023-07-13T00:00:02;18.50;99.90
21037;DHT22;10677;50.942;4.028;2023-07-13T00:02:30;18.40;99.90
21037;DHT22;10677;50.942;4.028;2023-07-13T00:04:58;18.40;99.90
21037;DHT22;10677;50.942;4.028;2023-07-13T00:07:23;18.40;99.90
21037;DHT22;10677;50.942;4.028;2023-07-13T00:09:49;18.30;99.90
21037;DHT22;10677;50.942;4.028;2023-07-13T00:12:26;18.30;99.90
21037;DHT22;10677;50.942;4.028;2023-07-13T00:14:53;18.20;99.90
21037;DHT22;10677;50.942;4.028;2023-07-13T00:17:18;18.20;99.90
21037;DHT22;10677;50.942;4.028;2023-07-13T00:19:44;18.20;99.90
21037;DHT22;10677;50.942;4.028;2023-07-13T00:22:11;18.10;99.90
21037;DHT22;10677;50.942;4.028;2023-07-13T00:24:37;18.00;99.90
21037;DHT22;10677;50.942;4.028;2023-07-13T00:27:08;18.00;99.90
21037;DHT22;10677;50.942;4.028;2023-07-13T00:29:34;18.00;99.90
21037;DHT22;10677;50.942;4.028;2023-07-13T00:31:59;18.00;99.90
21037;DHT22;10677;50.942;4.028;2023-07-13T00:34:25;17.90;99.90
21037;DHT22;10677;50.942;4.028;2023-07-13T00:36:51;17.90;99.90
21037;DHT22;10677;50.942;4.028;2023-07-13T00:39:17;17.90;99.90
21037;DHT22;10677;50.942;4.028;2023-07-13T00:41:42;17.90;99.90
21037;DHT22;10677;50.942;4.028;2023-07-13T00:44:19;17.90;99.90
21037;DHT22;10677;50.942;4.028;2023-07-13T00:46:49;17.90;99.90
21037;DHT22;10677;50.942;4.028;2023-07-13T00:49:22;18.00;99.90
21037;DHT22;10677;50.942;4.028;2023-07-13T00:51:55;18.00;99.90
21037;DHT22;10677;50.942;4.028;2023-07-13T00:54:34;18.10;99.90
21037;DHT22;10677;50.942;4.028;2023-07-13T00:57:03;18.10;99.90
21037;DHT22;10677;50.942;4.028;2023-07-13T00:59:31;18.00;99.90
21037;DHT22;10677;50.942;4.028;2023-07-13T01:01:57;17.90;99.90
21037;DHT22;10677;50.942;4.028;2023-07-13T01:04:26;17.90;99.90
21037;DHT22;10677;50.942;4.028;2023-07-13T01:06:52;18.00;99.90
21037;DHT22;10677;50.942;4.028;2023-07-13T01:09:19;17.90;99.90
21037;DHT22;10677;50.942;4.028;2023-07-13T01:11:46;17.90;99.90
21037;DHT22;10677;50.942;4.028;2023-07-13T01:14:12;17.90;99.90
21037;DHT22;10677;50.942;4.028;2023-07-13T01:16:39;17.90;99.90
21037;DHT22;10677;50.942;4.028;2023-07-13T01:19:58;17.90;99.90
21037;DHT22;10677;50.942;4.028;2023-07-13T01:22:13;17.80;99.90
21037;DHT22;10677;50.942;4.028;2023-07-13T01:24:42;17.90;99.90
21037;DHT22;10677;50.942;4.028;2023-07-13T01:27:09;17.90;99.90
21037;DHT22;10677;50.942;4.028;2023-07-13T01:29:37;17.90;99.90
21037;DHT22;10677;50.942;4.028;2023-07-13T01:32:12;17.70;99.90
21037;DHT22;10677;50.942;4.028;2023-07-13T01:34:38;17.80;99.90
21037;DHT22;10677;50.942;4.028;2023-07-13T01:37:08;17.80;99.90
21037;DHT22;10677;50.942;4.028;2023-07-13T01:39:35;17.70;99.90
21037;DHT22;10677;50.942;4.028;2023-07-13T01:42:00;17.70;99.90
21037;DHT22;10677;50.942;4.028;2023-07-13T01:44:26;17.80;99.90
21037;DHT22;10677;50.942;4.028;2023-07-13T01:46:52;17.80;99.90
21037;DHT22;10677;50.942;4.028;2023-07-13T01:49:18;17.80;99.90
21037;DHT22;10677;50.942;4.028;2023-07-13T01:51:43;17.70;99.90
21037;DHT22;10677;50.942;4.028;2023-07-13T01:54:09;17.70;99.90
21037;DHT22;10677;50.942;4.028;2023-07-13T01:56:34;17.70;99.90
21037;DHT22;10677;50.942;4.028;2023-07-13T01:59:00;17.60;99.90
21037;DHT22;10677;50.942;4.028;2023-07-13T02:01:26;17.60;99.90
21037;DHT22;10677;50.942;4.028;2023-07-13T02:03:51;17.60;99.90
21037;DHT22;10677;50.942;4.028;2023-07-13T02:06:17;17.50;99.90
21037;DHT22;10677;50.942;4.028;2023-07-13T02:08:43;17.60;99.90
21037;DHT22;10677;50.942;4.028;2023-07-13T02:11:08;17.70;99.90
21037;DHT22;10677;50.942;4.028;2023-07-13T02:13:34;17.70;99.90
21037;DHT22;10677;50.942;4.028;2023-07-13T02:16:00;17.60;99.90
21037;DHT22;10677;50.942;4.028;2023-07-13T02:18:26;17.50;99.90
21037;DHT22;10677;50.942;4.028;2023-07-13T02:20:52;17.40;99.90
21037;DHT22;10677;50.942;4.028;2023-07-13T02:23:18;17.40;99.90
21037;DHT22;10677;50.942;4.028;2023-07-13T02:25:44;17.40;99.90
21037;DHT22;10677;50.942;4.028;2023-07-13T02:28:10;17.30;99.90
21037;DHT22;10677;50.942;4.028;2023-07-13T02:30:35;17.30;99.90
21037;DHT22;10677;50.942;4.028;2023-07-13T02:33:01;17.20;99.90
21037;DHT22;10677;50.942;4.028;2023-07-13T02:35:27;17.10;99.90
21037;DHT22;10677;50.942;4.028;2023-07-13T02:37:52;17.00;99.90
21037;DHT22;10677;50.942;4.028;2023-07-13T02:40:18;16.90;99.90
21037;DHT22;10677;50.942;4.028;2023-07-13T02:42:44;16.90;99.90
21037;DHT22;10677;50.942;4.028;2023-07-13T02:45:10;16.80;99.90
21037;DHT22;10677;50.942;4.028;2023-07-13T02:47:36;16.80;99.90
21037;DHT22;10677;50.942;4.028;2023-07-13T02:50:02;16.70;99.90
21037;DHT22;10677;50.942;4.028;2023-07-13T02:52:28;16.70;99.90
21037;DHT22;10677;50.942;4.028;2023-07-13T02:54:54;16.60;99.90
21037;DHT22;10677;50.942;4.028;2023-07-13T02:57:19;16.60;99.90
21037;DHT22;10677;50.942;4.028;2023-07-13T02:59:46;16.60;99.90
21037;DHT22;10677;50.942;4.028;2023-07-13T03:02:11;16.60;99.90
21037;DHT22;10677;50.942;4.028;2023-07-13T03:04:37;16.60;99.90
21037;DHT22;10677;50.942;4.028;2023-07-13T03:07:03;16.50;99.90
21037;DHT22;10677;50.942;4.028;2023-07-13T03:09:30;16.50;99.90
21037;DHT22;10677;50.942;4.028;2023-07-13T03:11:56;16.40;99.90
21037;DHT22;10677;50.942;4.028;2023-07-13T03:14:22;16.40;99.90
21037;DHT22;10677;50.942;4.028;2023-07-13T03:16:48;16.40;99.90
21037;DHT22;10677;50.942;4.028;2023-07-13T03:19:14;16.40;99.90
21037;DHT22;10677;50.942;4.028;2023-07-13T03:21:40;16.30;99.90
21037;DHT22;10677;50.942;4.028;2023-07-13T03:24:06;16.30;99.90
21037;DHT22;10677;50.942;4.028;2023-07-13T03:26:32;16.20;99.90
21037;DHT22;10677;50.942;4.028;2023-07-13T03:28:57;16.20;99.90
21037;DHT22;10677;50.942;4.028;2023-07-13T03:31:27;16.30;99.90
21037;DHT22;10677;50.942;4.028;2023-07-13T03:33:54;16.40;99.90
21037;DHT22;10677;50.942;4.028;2023-07-13T03:36:25;16.40;99.90
21037;DHT22;10677;50.942;4.028;2023-07-13T03:38:53;16.40;99.90
21037;DHT22;10677;50.942;4.028;2023-07-13T03:41:20;16.40;99.90
21037;DHT22;10677;50.942;4.028;2023-07-13T03:43:46;16.50;99.90
21037;DHT22;10677;50.942;4.028;2023-07-13T03:46:13;16.50;99.90
21037;DHT22;10677;50.942;4.028;2023-07-13T03:48:40;16.50;99.90
21037;DHT22;10677;50.942;4.028;2023-07-13T03:51:06;16.50;99.90
21037;DHT22;10677;50.942;4.028;2023-07-13T03:53:32;16.50;99.90
21037;DHT22;10677;50.942;4.028;2023-07-13T03:55:57;16.50;99.90
21037;DHT22;10677;50.942;4.028;2023-07-13T03:58:32;16.50;99.90
21037;DHT22;10677;50.942;4.028;2023-07-13T04:00:59;16.50;99.90
21037;DHT22;10677;50.942;4.028;2023-07-13T04:03:25;16.60;99.90
21037;DHT22;10677;50.942;4.028;2023-07-13T04:05:56;16.60;99.90
21037;DHT22;10677;50.942;4.028;2023-07-13T04:08:35;16.70;99.90
21037;DHT22;10677;50.942;4.028;2023-07-13T04:11:02;16.80;99.90
21037;DHT22;10677;50.942;4.028;2023-07-13T04:13:28;16.70;99.90
21037;DHT22;10677;50.942;4.028;2023-07-13T04:15:54;16.60;99.90
21037;DHT22;10677;50.942;4.028;2023-07-13T04:18:21;16.60;99.90
21037;DHT22;10677;50.942;4.028;2023-07-13T04:20:47;16.70;99.90
21037;DHT22;10677;50.942;4.028;2023-07-13T04:23:14;16.70;99.90
21037;DHT22;10677;50.942;4.028;2023-07-13T04:25:43;16.70;99.90
21037;DHT22;10677;50.942;4.028;2023-07-13T04:28:09;16.70;99.90
21037;DHT22;10677;50.942;4.028;2023-07-13T04:30:35;16.70;99.90
21037;DHT22;10677;50.942;4.028;2023-07-13T04:33:01;16.70;99.90
21037;DHT22;10677;50.942;4.028;2023-07-13T04:35:26;16.50;99.90
21037;DHT22;10677;50.942;4.028;2023-07-13T04:37:52;16.40;99.90
21037;DHT22;10677;50.942;4.028;2023-07-13T04:40:19;16.50;99.90
21037;DHT22;10677;50.942;4.028;2023-07-13T04:42:46;16.50;99.90
21037;DHT22;10677;50.942;4.028;2023-07-13T04:45:13;16.50;99.90
21037;DHT22;10677;50.942;4.028;2023-07-13T04:47:39;16.50;99.90
21037;DHT22;10677;50.942;4.028;2023-07-13T04:50:06;16.50;99.90
21037;DHT22;10677;50.942;4.028;2023-07-13T04:52:31;16.60;99.90
21037;DHT22;10677;50.942;4.028;2023-07-13T04:54:58;16.60;99.90
21037;DHT22;10677;50.942;4.028;2023-07-13T04:57:25;16.60;99.90
21037;DHT22;10677;50.942;4.028;2023-07-13T04:59:50;16.60;99.90
21037;DHT22;10677;50.942;4.028;2023-07-13T05:02:16;16.60;99.90
21037;DHT22;10677;50.942;4.028;2023-07-13T05:04:42;16.70;99.90
21037;DHT22;10677;50.942;4.028;2023-07-13T05:07:07;16.80;99.90
21037;DHT22;10677;50.942;4.028;2023-07-13T05:09:33;16.80;99.90
21037;DHT22;10677;50.942;4.028;2023-07-13T05:11:58;16.90;99.90
21037;DHT22;10677;50.942;4.028;2023-07-13T05:14:24;17.00;99.90
21037;DHT22;10677;50.942;4.028;2023-07-13T05:16:50;17.00;99.90
21037;DHT22;10677;50.942;4.028;2023-07-13T05:19:15;17.10;99.90
21037;DHT22;10677;50.942;4.028;2023-07-13T05:21:41;17.10;99.90
21037;DHT22;10677;50.942;4.028;2023-07-13T05:24:07;17.10;99.90
21037;DHT22;10677;50.942;4.028;2023-07-13T05:26:32;17.20;99.90
21037;DHT22;10677;50.942;4.028;2023-07-13T05:28:58;17.30;99.90
21037;DHT22;10677;50.942;4.028;2023-07-13T05:31:23;17.20;99.90
21037;DHT22;10677;50.942;4.028;2023-07-13T05:33:49;17.20;99.90
21037;DHT22;10677;50.942;4.028;2023-07-13T05:36:15;17.30;99.90
21037;DHT22;10677;50.942;4.028;2023-07-13T05:38:40;17.40;99.90
21037;DHT22;10677;50.942;4.028;2023-07-13T05:41:06;17.30;99.90
21037;DHT22;10677;50.942;4.028;2023-07-13T05:43:32;17.30;99.90
21037;DHT22;10677;50.942;4.028;2023-07-13T05:45:58;17.40;99.90
21037;DHT22;10677;50.942;4.028;2023-07-13T05:48:24;17.60;99.90
21037;DHT22;10677;50.942;4.028;2023-07-13T05:50:49;17.60;99.90
21037;DHT22;10677;50.942;4.028;2023-07-13T05:53:15;17.50;99.90
21037;DHT22;10677;50.942;4.028;2023-07-13T05:55:42;17.50;99.90
21037;DHT22;10677;50.942;4.028;2023-07-13T05:58:08;17.60;99.90
21037;DHT22;10677;50.942;4.028;2023-07-13T06:00:34;17.70;99.90
21037;DHT22;10677;50.942;4.028;2023-07-13T06:02:59;17.90;99.90
21037;DHT22;10677;50.942;4.028;2023-07-13T06:05:25;18.10;99.90
21037;DHT22;10677;50.942;4.028;2023-07-13T06:07:51;18.20;99.90
21037;DHT22;10677;50.942;4.028;2023-07-13T06:10:16;18.20;99.90
21037;DHT22;10677;50.942;4.028;2023-07-13T06:12:42;18.30;99.90
21037;DHT22;10677;50.942;4.028;2023-07-13T06:15:08;18.40;99.90
21037;DHT22;10677;50.942;4.028;2023-07-13T06:17:34;18.40;99.90
21037;DHT22;10677;50.942;4.028;2023-07-13T06:19:59;18.60;99.90
21037;DHT22;10677;50.942;4.028;2023-07-13T06:22:25;18.50;99.90
21037;DHT22;10677;50.942;4.028;2023-07-13T06:24:51;18.60;99.90
21037;DHT22;10677;50.942;4.028;2023-07-13T06:27:17;18.60;99.90
21037;DHT22;10677;50.942;4.028;2023-07-13T06:29:43;18.60;99.90
21037;DHT22;10677;50.942;4.028;2023-07-13T06:32:10;18.60;99.90
21037;DHT22;10677;50.942;4.028;2023-07-13T06:34:36;18.60;99.90
21037;DHT22;10677;50.942;4.028;2023-07-13T06:37:02;18.60;99.90
21037;DHT22;10677;50.942;4.028;2023-07-13T06:39:27;18.70;99.90
21037;DHT22;10677;50.942;4.028;2023-07-13T06:41:53;18.80;99.90
21037;DHT22;10677;50.942;4.028;2023-07-13T06:44:20;18.90;99.90
21037;DHT22;10677;50.942;4.028;2023-07-13T06:46:45;18.90;99.90
21037;DHT22;10677;50.942;4.028;2023-07-13T06:49:11;19.10;99.90
21037;DHT22;10677;50.942;4.028;2023-07-13T06:51:37;19.10;99.90
21037;DHT22;10677;50.942;4.028;2023-07-13T06:54:03;19.10;99.90
21037;DHT22;10677;50.942;4.028;2023-07-13T06:56:29;19.10;99.90
21037;DHT22;10677;50.942;4.028;2023-07-13T06:58:54;19.00;99.90
21037;DHT22;10677;50.942;4.028;2023-07-13T07:01:20;19.00;99.90
21037;DHT22;10677;50.942;4.028;2023-07-13T07:03:46;18.90;99.90
21037;DHT22;10677;50.942;4.028;2023-07-13T07:06:16;18.90;99.90
21037;DHT22;10677;50.942;4.028;2023-07-13T07:08:42;18.90;99.90
21037;DHT22;10677;50.942;4.028;2023-07-13T07:11:11;19.00;99.90
21037;DHT22;10677;50.942;4.028;2023-07-13T07:13:37;19.10;99.90
21037;DHT22;10677;50.942;4.028;2023-07-13T07:16:03;19.20;99.90
21037;DHT22;10677;50.942;4.028;2023-07-13T07:18:28;19.40;99.90
21037;DHT22;10677;50.942;4.028;2023-07-13T07:20:54;19.50;99.90
21037;DHT22;10677;50.942;4.028;2023-07-13T07:23:20;19.70;99.90
21037;DHT22;10677;50.942;4.028;2023-07-13T07:25:45;19.90;99.90
21037;DHT22;10677;50.942;4.028;2023-07-13T07:28:14;20.00;99.90
21037;DHT22;10677;50.942;4.028;2023-07-13T07:30:42;20.00;99.90
21037;DHT22;10677;50.942;4.028;2023-07-13T07:33:08;20.10;99.90
21037;DHT22;10677;50.942;4.028;2023-07-13T07:35:34;20.20;99.90
21037;DHT22;10677;50.942;4.028;2023-07-13T07:38:00;20.30;99.90
21037;DHT22;10677;50.942;4.028;2023-07-13T07:40:25;20.30;99.90
21037;DHT22;10677;50.942;4.028;2023-07-13T07:42:52;20.50;99.90
21037;DHT22;10677;50.942;4.028;2023-07-13T07:45:17;20.70;99.90
21037;DHT22;10677;50.942;4.028;2023-07-13T07:47:43;20.70;99.90
21037;DHT22;10677;50.942;4.028;2023-07-13T07:50:09;20.70;99.90
21037;DHT22;10677;50.942;4.028;2023-07-13T07:52:35;20.70;99.90
21037;DHT22;10677;50.942;4.028;2023-07-13T07:55:00;20.60;99.90
21037;DHT22;10677;50.942;4.028;2023-07-13T07:57:26;20.60;99.90
21037;DHT22;10677;50.942;4.028;2023-07-13T07:59:52;20.70;99.90
21037;DHT22;10677;50.942;4.028;2023-07-13T08:02:17;21.00;99.90
21037;DHT22;10677;50.942;4.028;2023-07-13T08:04:43;21.10;99.90
21037;DHT22;10677;50.942;4.028;2023-07-13T08:07:09;21.10;99.90
21037;DHT22;10677;50.942;4.028;2023-07-13T08:09:35;21.30;99.90
21037;DHT22;10677;50.942;4.028;2023-07-13T08:12:00;21.40;99.90
21037;DHT22;10677;50.942;4.028;2023-07-13T08:14:26;21.50;99.90
21037;DHT22;10677;50.942;4.028;2023-07-13T08:16:51;21.50;99.90
21037;DHT22;10677;50.942;4.028;2023-07-13T08:19:17;21.40;99.90
21037;DHT22;10677;50.942;4.028;2023-07-13T08:21:43;21.30;99.90
21037;DHT22;10677;50.942;4.028;2023-07-13T08:24:09;21.10;99.90
21037;DHT22;10677;50.942;4.028;2023-07-13T08:26:35;21.20;99.90
21037;DHT22;10677;50.942;4.028;2023-07-13T08:29:00;21.40;99.90
21037;DHT22;10677;50.942;4.028;2023-07-13T08:31:26;21.50;99.90
21037;DHT22;10677;50.942;4.028;2023-07-13T08:33:52;21.50;99.90
21037;DHT22;10677;50.942;4.028;2023-07-13T08:36:17;21.50;99.90
21037;DHT22;10677;50.942;4.028;2023-07-13T08:38:43;21.70;99.90
21037;DHT22;10677;50.942;4.028;2023-07-13T08:41:17;21.70;99.90
21037;DHT22;10677;50.942;4.028;2023-07-13T08:43:47;21.70;99.90
21037;DHT22;10677;50.942;4.028;2023-07-13T08:48:52;21.20;99.90
21037;DHT22;10677;50.942;4.028;2023-07-13T08:51:40;21.40;99.90
21037;DHT22;10677;50.942;4.028;2023-07-13T08:54:38;21.70;99.90
21037;DHT22;10677;50.942;4.028;2023-07-13T08:57:14;21.70;99.90
21037;DHT22;10677;50.942;4.028;2023-07-13T08:59:40;21.80;99.90
21037;DHT22;10677;50.942;4.028;2023-07-13T09:05:27;21.70;99.90
21037;DHT22;10677;50.942;4.028;2023-07-13T09:10:59;21.40;99.90
21037;DHT22;10677;50.942;4.028;2023-07-13T09:13:31;21.40;99.90
21037;DHT22;10677;50.942;4.028;2023-07-13T09:15:59;21.40;99.90
21037;DHT22;10677;50.942;4.028;2023-07-13T09:18:32;21.30;99.90
21037;DHT22;10677;50.942;4.028;2023-07-13T09:21:12;21.40;99.90
21037;DHT22;10677;50.942;4.028;2023-07-13T09:23:39;21.60;99.90
21037;DHT22;10677;50.942;4.028;2023-07-13T09:26:21;21.90;99.90
21037;DHT22;10677;50.942;4.028;2023-07-13T09:28:56;22.00;99.90
21037;DHT22;10677;50.942;4.028;2023-07-13T09:33:55;22.10;99.90
21037;DHT22;10677;50.942;4.028;2023-07-13T09:39:09;22.40;99.90
21037;DHT22;10677;50.942;4.028;2023-07-13T09:42:26;22.70;99.90
21037;DHT22;10677;50.942;4.028;2023-07-13T09:44:52;22.80;99.90
21037;DHT22;10677;50.942;4.028;2023-07-13T09:47:33;23.00;99.90
21037;DHT22;10677;50.942;4.028;2023-07-13T09:50:06;23.10;99.90
21037;DHT22;10677;50.942;4.028;2023-07-13T09:52:44;23.40;99.90
21037;DHT22;10677;50.942;4.028;2023-07-13T09:55:29;23.60;99.90
21037;DHT22;10677;50.942;4.028;2023-07-13T09:57:55;23.70;99.90
21037;DHT22;10677;50.942;4.028;2023-07-13T10:00:29;23.80;99.90
21037;DHT22;10677;50.942;4.028;2023-07-13T10:05:43;23.20;99.90
21037;DHT22;10677;50.942;4.028;2023-07-13T10:10:45;23.40;99.90
21037;DHT22;10677;50.942;4.028;2023-07-13T10:13:34;23.50;99.90
21037;DHT22;10677;50.942;4.028;2023-07-13T10:16:03;23.60;99.90
21037;DHT22;10677;50.942;4.028;2023-07-13T10:21:16;23.50;99.90
21037;DHT22;10677;50.942;4.028;2023-07-13T10:23:48;23.30;99.90
21037;DHT22;10677;50.942;4.028;2023-07-13T10:26:21;23.00;99.90
21037;DHT22;10677;50.942;4.028;2023-07-13T10:28:56;22.70;99.90
21037;DHT22;10677;50.942;4.028;2023-07-13T10:31:24;22.60;99.90
21037;DHT22;10677;50.942;4.028;2023-07-13T10:33:50;22.70;99.90
21037;DHT22;10677;50.942;4.028;2023-07-13T10:36:31;22.80;99.90
21037;DHT22;10677;50.942;4.028;2023-07-13T10:39:02;22.80;99.90
21037;DHT22;10677;50.942;4.028;2023-07-13T10:41:30;23.10;99.90
21037;DHT22;10677;50.942;4.028;2023-07-13T10:43:56;23.30;99.90
21037;DHT22;10677;50.942;4.028;2023-07-13T10:46:26;23.40;99.90
21037;DHT22;10677;50.942;4.028;2023-07-13T10:49:01;23.60;99.90
21037;DHT22;10677;50.942;4.028;2023-07-13T10:51:28;23.60;99.90
21037;DHT22;10677;50.942;4.028;2023-07-13T10:56:40;23.90;99.90
21037;DHT22;10677;50.942;4.028;2023-07-13T10:59:23;24.10;99.90
21037;DHT22;10677;50.942;4.028;2023-07-13T11:01:56;24.10;99.90
21037;DHT22;10677;50.942;4.028;2023-07-13T11:04:24;24.10;99.90
21037;DHT22;10677;50.942;4.028;2023-07-13T11:06:56;24.20;99.90
21037;DHT22;10677;50.942;4.028;2023-07-13T11:09:37;24.40;99.90
21037;DHT22;10677;50.942;4.028;2023-07-13T11:12:18;24.30;99.90
21037;DHT22;10677;50.942;4.028;2023-07-13T11:25:42;24.70;99.90
21037;DHT22;10677;50.942;4.028;2023-07-13T11:30:40;24.20;99.90
21037;DHT22;10677;50.942;4.028;2023-07-13T11:35:53;23.30;99.90
21037;DHT22;10677;50.942;4.028;2023-07-13T11:40:59;19.90;99.90
21037;DHT22;10677;50.942;4.028;2023-07-13T11:43:28;19.10;99.90
21037;DHT22;10677;50.942;4.028;2023-07-13T11:45:54;18.20;99.90
21037;DHT22;10677;50.942;4.028;2023-07-13T11:48:29;18.10;99.90
21037;DHT22;10677;50.942;4.028;2023-07-13T11:51:05;17.90;99.90
21037;DHT22;10677;50.942;4.028;2023-07-13T11:53:39;17.90;99.90
21037;DHT22;10677;50.942;4.028;2023-07-13T11:56:06;17.80;99.90
21037;DHT22;10677;50.942;4.028;2023-07-13T11:58:32;17.80;99.90
21037;DHT22;10677;50.942;4.028;2023-07-13T12:01:01;17.90;99.90
21037;DHT22;10677;50.942;4.028;2023-07-13T12:03:30;18.00;99.90
21037;DHT22;10677;50.942;4.028;2023-07-13T12:06:03;18.40;99.90
21037;DHT22;10677;50.942;4.028;2023-07-13T12:08:32;18.60;99.90
21037;DHT22;10677;50.942;4.028;2023-07-13T12:11:05;19.00;99.90
21037;DHT22;10677;50.942;4.028;2023-07-13T12:13:36;19.60;99.90
21037;DHT22;10677;50.942;4.028;2023-07-13T12:16:11;20.20;99.90
21037;DHT22;10677;50.942;4.028;2023-07-13T12:18:37;20.70;99.90
21037;DHT22;10677;50.942;4.028;2023-07-13T12:21:04;21.00;99.90
21037;DHT22;10677;50.942;4.028;2023-07-13T12:23:34;21.00;99.90
21037;DHT22;10677;50.942;4.028;2023-07-13T12:26:02;21.10;99.90
21037;DHT22;10677;50.942;4.028;2023-07-13T12:28:40;21.10;99.90
21037;DHT22;10677;50.942;4.028;2023-07-13T12:31:31;21.40;99.90
21037;DHT22;10677;50.942;4.028;2023-07-13T12:36:36;21.90;99.90
21037;DHT22;10677;50.942;4.028;2023-07-13T12:39:15;22.20;99.90
21037;DHT22;10677;50.942;4.028;2023-07-13T12:41:42;22.20;99.90
21037;DHT22;10677;50.942;4.028;2023-07-13T12:44:12;22.40;99.90
21037;DHT22;10677;50.942;4.028;2023-07-13T12:46:38;22.30;99.90
21037;DHT22;10677;50.942;4.028;2023-07-13T12:49:07;22.50;99.90
21037;DHT22;10677;50.942;4.028;2023-07-13T12:51:33;22.70;99.90
21037;DHT22;10677;50.942;4.028;2023-07-13T12:54:18;23.00;99.90
21037;DHT22;10677;50.942;4.028;2023-07-13T12:56:45;23.00;99.90
21037;DHT22;10677;50.942;4.028;2023-07-13T12:59:18;23.10;99.90
21037;DHT22;10677;50.942;4.028;2023-07-13T13:01:46;22.80;99.90
21037;DHT22;10677;50.942;4.028;2023-07-13T13:04:12;22.70;99.90
21037;DHT22;10677;50.942;4.028;2023-07-13T13:06:38;22.60;99.90
21037;DHT22;10677;50.942;4.028;2023-07-13T13:09:13;22.40;99.90
21037;DHT22;10677;50.942;4.028;2023-07-13T13:11:40;22.40;99.90
21037;DHT22;10677;50.942;4.028;2023-07-13T13:14:07;22.30;99.90
21037;DHT22;10677;50.942;4.028;2023-07-13T13:16:35;22.50;99.90
21037;DHT22;10677;50.942;4.028;2023-07-13T13:19:25;22.80;99.90
21037;DHT22;10677;50.942;4.028;2023-07-13T13:21:54;23.40;99.90
21037;DHT22;10677;50.942;4.028;2023-07-13T13:24:23;23.90;99.90
21037;DHT22;10677;50.942;4.028;2023-07-13T13:26:51;24.50;99.90
21037;DHT22;10677;50.942;4.028;2023-07-13T13:29:19;25.30;99.90
21037;DHT22;10677;50.942;4.028;2023-07-13T13:31:45;25.80;99.90
21037;DHT22;10677;50.942;4.028;2023-07-13T13:34:16;25.70;99.90
21037;DHT22;10677;50.942;4.028;2023-07-13T13:36:43;25.90;99.90
21037;DHT22;10677;50.942;4.028;2023-07-13T13:39:24;25.50;99.90
21037;DHT22;10677;50.942;4.028;2023-07-13T13:41:51;24.90;99.90
21037;DHT22;10677;50.942;4.028;2023-07-13T13:44:18;24.60;99.90
21037;DHT22;10677;50.942;4.028;2023-07-13T13:46:52;24.20;99.90
21037;DHT22;10677;50.942;4.028;2023-07-13T13:49:22;23.90;99.90
21037;DHT22;10677;50.942;4.028;2023-07-13T13:51:49;23.90;99.90
21037;DHT22;10677;50.942;4.028;2023-07-13T13:54:16;24.00;99.90
21037;DHT22;10677;50.942;4.028;2023-07-13T13:56:48;24.00;99.90
21037;DHT22;10677;50.942;4.028;2023-07-13T13:59:14;23.90;99.90
21037;DHT22;10677;50.942;4.028;2023-07-13T14:01:42;23.30;99.90
21037;DHT22;10677;50.942;4.028;2023-07-13T14:04:16;22.60;99.90
21037;DHT22;10677;50.942;4.028;2023-07-13T14:06:43;22.40;99.90
21037;DHT22;10677;50.942;4.028;2023-07-13T14:09:11;22.90;99.90
21037;DHT22;10677;50.942;4.028;2023-07-13T14:11:38;25.40;99.90
21037;DHT22;10677;50.942;4.028;2023-07-13T14:14:14;28.00;99.90
21037;DHT22;10677;50.942;4.028;2023-07-13T14:16:40;29.90;99.90
21037;DHT22;10677;50.942;4.028;2023-07-13T14:19:10;31.30;99.90
21037;DHT22;10677;50.942;4.028;2023-07-13T14:21:36;31.20;99.90
21037;DHT22;10677;50.942;4.028;2023-07-13T14:24:02;33.40;99.90
21037;DHT22;10677;50.942;4.028;2023-07-13T14:26:30;35.80;99.90
21037;DHT22;10677;50.942;4.028;2023-07-13T14:28:57;35.00;99.90
21037;DHT22;10677;50.942;4.028;2023-07-13T14:31:27;32.90;99.90
21037;DHT22;10677;50.942;4.028;2023-07-13T14:33:54;32.70;99.90
21037;DHT22;10677;50.942;4.028;2023-07-13T14:36:33;32.30;99.90
21037;DHT22;10677;50.942;4.028;2023-07-13T14:39:11;32.00;99.90
21037;DHT22;10677;50.942;4.028;2023-07-13T14:41:37;32.80;98.90
21037;DHT22;10677;50.942;4.028;2023-07-13T14:44:16;33.20;97.60
21037;DHT22;10677;50.942;4.028;2023-07-13T14:46:44;33.80;97.50
21037;DHT22;10677;50.942;4.028;2023-07-13T14:49:13;32.70;96.20
21037;DHT22;10677;50.942;4.028;2023-07-13T14:51:40;30.20;99.30
21037;DHT22;10677;50.942;4.028;2023-07-13T14:54:08;28.40;99.90
21037;DHT22;10677;50.942;4.028;2023-07-13T14:56:34;28.50;99.90
21037;DHT22;10677;50.942;4.028;2023-07-13T14:59:00;28.90;99.90
21037;DHT22;10677;50.942;4.028;2023-07-13T15:01:25;29.10;99.90
21037;DHT22;10677;50.942;4.028;2023-07-13T15:03:52;29.20;99.90
21037;DHT22;10677;50.942;4.028;2023-07-13T15:06:18;29.20;99.90
21037;DHT22;10677;50.942;4.028;2023-07-13T15:08:45;29.90;99.90
21037;DHT22;10677;50.942;4.028;2023-07-13T15:11:11;32.10;99.90
21037;DHT22;10677;50.942;4.028;2023-07-13T15:13:38;31.70;99.00
21037;DHT22;10677;50.942;4.028;2023-07-13T15:16:10;31.90;96.90
21037;DHT22;10677;50.942;4.028;2023-07-13T15:18:39;32.80;96.60
21037;DHT22;10677;50.942;4.028;2023-07-13T15:21:10;33.90;95.30
21037;DHT22;10677;50.942;4.028;2023-07-13T15:23:36;33.30;95.30
21037;DHT22;10677;50.942;4.028;2023-07-13T15:26:01;31.40;95.70
21037;DHT22;10677;50.942;4.028;2023-07-13T15:28:28;30.40;97.70
21037;DHT22;10677;50.942;4.028;2023-07-13T15:30:54;31.30;96.90
21037;DHT22;10677;50.942;4.028;2023-07-13T15:33:26;31.50;96.30
21037;DHT22;10677;50.942;4.028;2023-07-13T15:35:52;31.50;96.30
21037;DHT22;10677;50.942;4.028;2023-07-13T15:38:22;30.60;96.50
21037;DHT22;10677;50.942;4.028;2023-07-13T15:40:49;30.20;97.20
21037;DHT22;10677;50.942;4.028;2023-07-13T15:43:16;31.10;96.00
21037;DHT22;10677;50.942;4.028;2023-07-13T15:45:43;31.70;95.70
21037;DHT22;10677;50.942;4.028;2023-07-13T15:48:16;30.60;95.90
21037;DHT22;10677;50.942;4.028;2023-07-13T15:50:51;29.50;97.70
21037;DHT22;10677;50.942;4.028;2023-07-13T15:53:24;31.00;97.00
21037;DHT22;10677;50.942;4.028;2023-07-13T15:55:50;31.80;95.50
21037;DHT22;10677;50.942;4.028;2023-07-13T15:58:18;30.60;96.10
21037;DHT22;10677;50.942;4.028;2023-07-13T16:00:44;29.70;97.20
21037;DHT22;10677;50.942;4.028;2023-07-13T16:03:10;29.10;98.00
21037;DHT22;10677;50.942;4.028;2023-07-13T16:05:36;28.70;99.00
21037;DHT22;10677;50.942;4.028;2023-07-13T16:08:04;29.30;99.00
21037;DHT22;10677;50.942;4.028;2023-07-13T16:10:34;29.90;98.20
21037;DHT22;10677;50.942;4.028;2023-07-13T16:13:01;31.00;97.20
21037;DHT22;10677;50.942;4.028;2023-07-13T16:15:26;31.70;96.70
21037;DHT22;10677;50.942;4.028;2023-07-13T16:17:53;32.10;95.90
21037;DHT22;10677;50.942;4.028;2023-07-13T16:20:20;33.70;94.90
21037;DHT22;10677;50.942;4.028;2023-07-13T16:22:50;33.60;94.00